createdAt,value
2019-04-14T00:01:04.245Z,6.70
2019-04-14T00:03:39.050Z,6.80
2019-04-14T00:06:09.112Z,6.70
2019-04-14T00:08:39.456Z,6.70
2019-04-14T00:11:10.351Z,6.70
2019-04-14T00:13:41.271Z,6.70
2019-04-14T00:16:11.735Z,6.70
2019-04-14T00:18:42.536Z,6.70
2019-04-14T00:21:12.959Z,6.70
2019-04-14T00:23:43.454Z,6.70
2019-04-14T00:26:27.645Z,6.70
2019-04-14T00:28:57.933Z,6.70
2019-04-14T00:31:28.617Z,6.50
2019-04-14T00:34:00.698Z,6.60
2019-04-14T00:36:37.952Z,6.60
2019-04-14T00:39:09.606Z,6.60
2019-04-14T00:41:47.425Z,6.60
2019-04-14T00:44:16.766Z,6.60
2019-04-14T00:46:54.043Z,6.50
2019-04-14T00:49:24.631Z,6.50
2019-04-14T00:51:55.001Z,6.50
2019-04-14T00:54:26.002Z,6.50
2019-04-14T00:56:56.274Z,6.50
2019-04-14T00:59:26.784Z,6.50
2019-04-14T01:01:56.954Z,6.50
2019-04-14T01:04:27.282Z,6.50
2019-04-14T01:06:57.632Z,6.40
2019-04-14T01:09:28.338Z,6.50
2019-04-14T01:11:57.833Z,6.40
2019-04-14T01:14:27.750Z,6.50
2019-04-14T01:16:58.016Z,6.50
2019-04-14T01:19:28.660Z,6.50
2019-04-14T01:21:58.869Z,6.40
2019-04-14T01:24:29.277Z,6.40
2019-04-14T01:26:59.531Z,6.40
2019-04-14T01:29:29.740Z,6.40
2019-04-14T01:32:00.141Z,6.40
2019-04-14T01:34:30.233Z,6.40
2019-04-14T01:37:00.715Z,6.40
2019-04-14T01:39:30.780Z,6.40
2019-04-14T01:42:00.701Z,6.40
2019-04-14T01:44:30.741Z,6.40
2019-04-14T01:47:00.984Z,6.40
2019-04-14T01:49:31.097Z,6.40
2019-04-14T01:52:08.310Z,6.30
2019-04-14T01:54:45.379Z,6.30
2019-04-14T01:57:22.153Z,6.30
2019-04-14T01:59:52.525Z,6.30
2019-04-14T02:02:26.999Z,6.30
2019-04-14T02:04:57.485Z,6.30
2019-04-14T02:07:27.678Z,6.30
2019-04-14T02:09:57.594Z,6.20
2019-04-14T02:12:27.895Z,6.20
2019-04-14T02:14:58.267Z,6.10
2019-04-14T02:17:28.520Z,6.00
2019-04-14T02:19:58.996Z,6.00
2019-04-14T02:22:29.107Z,6.00
2019-04-14T02:24:59.259Z,6.10
2019-04-14T02:27:29.717Z,6.10
2019-04-14T02:30:00.333Z,6.10
2019-04-14T02:32:57.271Z,6.10
2019-04-14T02:35:32.718Z,6.10
2019-04-14T02:38:02.042Z,6.00
2019-04-14T02:40:41.114Z,6.10
2019-04-14T02:43:06.894Z,6.10
2019-04-14T02:45:45.228Z,6.10
2019-04-14T02:48:20.357Z,6.10
2019-04-14T02:50:34.096Z,6.10
2019-04-14T02:53:09.057Z,6.10
2019-04-14T02:55:42.785Z,6.10
2019-04-14T02:58:10.455Z,6.10
2019-04-14T03:00:41.250Z,6.00
2019-04-14T03:03:20.028Z,6.00
2019-04-14T03:05:44.406Z,6.00
2019-04-14T03:08:22.247Z,6.00
2019-04-14T03:10:48.020Z,6.00
2019-04-14T03:15:53.905Z,5.90
2019-04-14T03:21:03.938Z,5.90
2019-04-14T03:23:48.697Z,5.90
2019-04-14T03:26:23.010Z,5.90
2019-04-14T03:28:56.448Z,5.90
2019-04-14T03:34:30.508Z,5.90
2019-04-14T03:44:03.234Z,5.80
2019-04-14T03:46:45.284Z,5.80
2019-04-14T03:49:17.776Z,5.80
2019-04-14T03:51:44.773Z,5.80
2019-04-14T03:54:03.153Z,5.80
2019-04-14T03:56:46.323Z,5.80
2019-04-14T03:59:17.349Z,5.80
2019-04-14T04:01:47.902Z,5.80
2019-04-14T04:04:18.431Z,5.70
2019-04-14T04:06:48.580Z,5.70
2019-04-14T04:09:19.376Z,5.70
2019-04-14T04:11:49.822Z,5.70
2019-04-14T04:14:20.332Z,5.70
2019-04-14T04:16:57.392Z,5.70
2019-04-14T04:19:29.409Z,5.70
2019-04-14T04:22:06.788Z,5.70
2019-04-14T04:24:54.373Z,5.70
2019-04-14T04:27:28.742Z,5.60
2019-04-14T04:30:03.765Z,5.60
2019-04-14T04:32:41.144Z,5.60
2019-04-14T04:35:13.140Z,5.60
2019-04-14T04:37:59.399Z,5.60
2019-04-14T04:40:31.222Z,5.60
2019-04-14T04:43:01.257Z,5.60
2019-04-14T04:45:31.996Z,6.00
2019-04-14T04:48:02.424Z,5.60
2019-04-14T04:50:32.477Z,5.70
2019-04-14T04:53:02.688Z,5.70
2019-04-14T04:55:32.857Z,5.70
2019-04-14T04:58:03.404Z,5.60
2019-04-14T05:00:33.113Z,5.60
2019-04-14T05:03:03.683Z,5.60
2019-04-14T05:06:02.683Z,5.60
2019-04-14T05:08:32.661Z,5.60
2019-04-14T05:11:20.893Z,5.60
2019-04-14T05:13:51.592Z,5.60
2019-04-14T05:16:21.425Z,5.60
2019-04-14T05:18:50.983Z,5.60
2019-04-14T05:21:21.413Z,5.60
2019-04-14T05:23:51.661Z,5.70
2019-04-14T05:26:22.089Z,5.70
2019-04-14T05:28:52.747Z,5.80
2019-04-14T05:31:22.867Z,5.80
2019-04-14T05:33:53.647Z,5.90
2019-04-14T05:36:23.765Z,5.90
2019-04-14T05:38:54.059Z,6.00
2019-04-14T05:41:24.456Z,6.00
2019-04-14T05:43:59.719Z,6.10
2019-04-14T05:46:27.384Z,6.10
2019-04-14T05:48:57.850Z,6.20
2019-04-14T05:51:28.392Z,6.20
2019-04-14T05:53:58.949Z,6.00
2019-04-14T05:56:29.636Z,6.00
2019-04-14T05:59:00.137Z,6.00
2019-04-14T06:01:29.995Z,6.10
2019-04-14T06:04:00.355Z,6.10
2019-04-14T06:06:30.206Z,6.20
2019-04-14T06:08:59.744Z,6.30
2019-04-14T06:11:29.231Z,6.30
2019-04-14T06:13:58.979Z,6.40
2019-04-14T06:16:28.780Z,6.40
2019-04-14T06:18:58.390Z,6.50
2019-04-14T06:21:27.933Z,6.60
2019-04-14T06:23:57.403Z,6.50
2019-04-14T06:26:26.993Z,6.60
2019-04-14T06:28:56.807Z,6.80
2019-04-14T06:31:33.580Z,6.70
2019-04-14T06:34:04.676Z,6.60
2019-04-14T06:36:41.735Z,6.70
2019-04-14T06:39:12.939Z,6.80
2019-04-14T06:41:42.455Z,6.80
2019-04-14T06:44:11.954Z,6.90
2019-04-14T06:46:42.007Z,6.90
2019-04-14T06:49:11.753Z,6.90
2019-04-14T06:51:41.224Z,6.80
2019-04-14T06:54:10.815Z,6.80
2019-04-14T06:56:40.333Z,6.80
2019-04-14T06:59:09.904Z,6.80
2019-04-14T07:01:39.675Z,6.80
2019-04-14T07:04:09.452Z,6.90
2019-04-14T07:06:39.313Z,7.00
2019-04-14T07:09:08.890Z,7.20
2019-04-14T07:11:38.416Z,7.40
2019-04-14T07:14:07.917Z,7.60
2019-04-14T07:16:37.829Z,7.70
2019-04-14T07:19:07.409Z,7.80
2019-04-14T07:21:36.982Z,7.90
2019-04-14T07:24:06.839Z,8.00
2019-04-14T07:26:36.392Z,8.10
2019-04-14T07:29:05.898Z,8.20
2019-04-14T07:31:42.921Z,8.20
2019-04-14T07:34:23.083Z,8.30
2019-04-14T07:37:10.017Z,8.30
2019-04-14T07:39:41.743Z,8.30
2019-04-14T07:42:15.872Z,8.20
2019-04-14T07:45:01.855Z,8.30
2019-04-14T07:47:33.003Z,8.30
2019-04-14T07:50:20.766Z,8.20
2019-04-14T07:52:54.945Z,8.20
2019-04-14T07:55:41.869Z,7.80
2019-04-14T07:58:15.575Z,7.80
2019-04-14T08:00:47.102Z,7.60
2019-04-14T08:03:35.623Z,7.70
2019-04-14T08:06:05.243Z,8.00
2019-04-14T08:08:35.037Z,8.30
2019-04-14T08:11:04.579Z,8.50
2019-04-14T08:13:34.192Z,8.70
2019-04-14T08:16:03.938Z,8.90
2019-04-14T08:18:33.561Z,8.90
2019-04-14T08:21:03.059Z,9.00
2019-04-14T08:23:33.044Z,9.00
2019-04-14T08:26:02.773Z,8.60
2019-04-14T08:28:32.631Z,8.60
2019-04-14T08:31:02.147Z,8.50
2019-04-14T08:33:35.057Z,8.70
2019-04-14T08:36:07.358Z,8.40
2019-04-14T08:38:37.204Z,8.50
2019-04-14T08:41:07.035Z,8.50
2019-04-14T08:43:56.075Z,8.60
2019-04-14T08:46:28.011Z,8.70
2019-04-14T08:49:08.323Z,9.00
2019-04-14T08:51:48.688Z,9.20
2019-04-14T08:54:22.547Z,9.20
2019-04-14T08:56:53.742Z,9.20
2019-04-14T08:59:24.994Z,9.30
2019-04-14T09:02:14.113Z,9.40
2019-04-14T09:04:45.968Z,9.30
2019-04-14T09:07:19.676Z,9.40
2019-04-14T09:09:51.022Z,9.00
2019-04-14T09:12:22.188Z,9.00
2019-04-14T09:14:57.164Z,9.20
2019-04-14T09:17:25.893Z,9.30
2019-04-14T09:19:55.417Z,9.30
2019-04-14T09:22:26.261Z,9.40
2019-04-14T09:24:56.022Z,9.60
2019-04-14T09:27:26.295Z,10.00
2019-04-14T09:29:55.997Z,10.40
2019-04-14T09:32:27.458Z,10.50
2019-04-14T09:34:57.186Z,10.40
2019-04-14T09:37:29.387Z,10.60
2019-04-14T09:39:58.981Z,10.70
2019-04-14T09:42:28.832Z,10.50
2019-04-14T09:45:00.827Z,10.30
2019-04-14T09:47:30.568Z,10.50
2019-04-14T09:50:01.716Z,10.60
2019-04-14T09:52:31.308Z,10.80
2019-04-14T09:55:01.036Z,11.10
2019-04-14T09:57:30.684Z,11.20
2019-04-14T10:00:00.132Z,11.50
2019-04-14T10:02:29.600Z,11.60
2019-04-14T10:04:59.094Z,11.50
2019-04-14T10:07:28.640Z,11.50
2019-04-14T10:09:58.158Z,11.40
2019-04-14T10:12:27.721Z,11.60
2019-04-14T10:14:57.242Z,11.70
2019-04-14T10:17:27.068Z,11.60
2019-04-14T10:19:56.513Z,11.80
2019-04-14T10:22:33.887Z,11.90
2019-04-14T10:24:58.008Z,11.90
2019-04-14T10:27:27.532Z,12.10
2019-04-14T10:29:57.169Z,11.80
2019-04-14T10:32:26.642Z,12.00
2019-04-14T10:34:56.161Z,11.90
2019-04-14T10:37:26.594Z,11.80
2019-04-14T10:39:59.184Z,11.90
2019-04-14T10:42:28.647Z,12.20
2019-04-14T10:44:59.793Z,12.40
2019-04-14T10:47:29.308Z,12.50
2019-04-14T10:49:59.103Z,12.50
2019-04-14T10:52:28.780Z,12.40
2019-04-14T10:54:58.302Z,12.20
2019-04-14T10:57:28.287Z,12.10
2019-04-14T10:59:58.337Z,12.20
2019-04-14T11:02:29.401Z,12.20
2019-04-14T11:04:59.679Z,12.20
2019-04-14T11:07:31.336Z,12.10
2019-04-14T11:10:07.029Z,12.10
2019-04-14T11:12:36.590Z,12.00
2019-04-14T11:15:07.373Z,11.80
2019-04-14T11:17:37.417Z,11.40
2019-04-14T11:20:07.507Z,11.30
2019-04-14T11:22:37.255Z,11.20
2019-04-14T11:25:06.888Z,11.30
2019-04-14T11:27:36.394Z,11.30
2019-04-14T11:30:08.400Z,11.30
2019-04-14T11:32:54.838Z,11.30
2019-04-14T11:35:25.916Z,11.30
2019-04-14T11:38:13.111Z,11.20
2019-04-14T11:40:44.194Z,11.10
2019-04-14T11:43:13.812Z,11.10
2019-04-14T11:45:43.321Z,11.00
2019-04-14T11:48:12.849Z,11.10
2019-04-14T11:50:42.335Z,11.10
2019-04-14T11:53:12.139Z,11.10
2019-04-14T11:55:41.645Z,10.90
2019-04-14T11:58:11.222Z,10.70
2019-04-14T12:00:42.399Z,10.70
2019-04-14T12:03:13.507Z,10.70
2019-04-14T12:06:00.042Z,10.70
2019-04-14T12:08:36.967Z,10.60
2019-04-14T12:11:09.200Z,10.70
2019-04-14T12:13:38.678Z,10.80
2019-04-14T12:16:08.298Z,10.70
2019-04-14T12:18:37.762Z,10.70
2019-04-14T12:21:07.202Z,10.70
2019-04-14T12:23:36.668Z,10.60
2019-04-14T12:26:06.217Z,10.60
2019-04-14T12:28:36.163Z,10.50
2019-04-14T12:31:06.522Z,10.60
2019-04-14T12:33:36.391Z,10.60
2019-04-14T12:36:09.100Z,10.70
2019-04-14T12:38:38.574Z,10.80
2019-04-14T12:41:10.515Z,10.90
2019-04-14T12:43:44.976Z,10.90
2019-04-14T12:46:22.219Z,10.90
2019-04-14T12:48:53.243Z,11.00
2019-04-14T12:51:24.322Z,10.80
2019-04-14T12:53:53.855Z,10.80
2019-04-14T12:56:24.910Z,10.90
2019-04-14T12:59:01.683Z,11.00
2019-04-14T13:01:44.696Z,11.00
2019-04-14T13:04:14.302Z,10.80
2019-04-14T13:06:43.744Z,10.80
2019-04-14T13:09:14.693Z,10.90
2019-04-14T13:11:44.542Z,11.00
2019-04-14T13:14:14.286Z,10.90
2019-04-14T13:16:43.752Z,10.90
2019-04-14T13:19:13.371Z,11.00
2019-04-14T13:21:42.853Z,11.00
2019-04-14T13:24:12.359Z,11.00
2019-04-14T13:26:41.834Z,11.10
2019-04-14T13:29:11.295Z,11.00
2019-04-14T13:31:40.758Z,11.00
2019-04-14T13:34:10.708Z,11.10
2019-04-14T13:36:40.501Z,11.10
2019-04-14T13:39:12.624Z,11.10
2019-04-14T13:41:41.481Z,11.20
2019-04-14T13:44:11.253Z,11.00
2019-04-14T13:46:40.722Z,11.10
2019-04-14T13:49:10.389Z,11.20
2019-04-14T13:51:39.927Z,11.30
2019-04-14T13:54:09.435Z,11.00
2019-04-14T13:56:38.909Z,11.00
2019-04-14T13:59:08.371Z,11.10
2019-04-14T14:01:37.883Z,11.20
2019-04-14T14:04:07.523Z,11.20
2019-04-14T14:06:37.000Z,11.10
2019-04-14T14:09:08.216Z,11.10
2019-04-14T14:11:42.110Z,11.10
2019-04-14T14:14:13.200Z,11.20
2019-04-14T14:16:50.404Z,11.20
2019-04-14T14:19:21.515Z,11.30
2019-04-14T14:22:08.990Z,11.30
2019-04-14T14:24:46.147Z,11.40
2019-04-14T14:27:15.615Z,11.40
2019-04-14T14:29:45.405Z,11.40
2019-04-14T14:32:16.504Z,11.40
2019-04-14T14:34:45.953Z,11.20
2019-04-14T14:37:15.425Z,11.20
2019-04-14T14:39:44.938Z,11.20
2019-04-14T14:42:14.423Z,11.20
2019-04-14T14:44:45.500Z,11.30
2019-04-14T14:47:25.649Z,11.30
2019-04-14T14:50:03.039Z,11.40
2019-04-14T14:52:33.642Z,11.30
2019-04-14T14:55:03.352Z,11.50
2019-04-14T14:57:32.814Z,11.50
2019-04-14T15:00:09.889Z,11.40
2019-04-14T15:02:39.607Z,11.50
2019-04-14T15:05:09.053Z,11.50
2019-04-14T15:07:38.606Z,11.40
2019-04-14T15:10:08.398Z,11.30
2019-04-14T15:12:37.875Z,11.20
2019-04-14T15:15:07.622Z,11.30
2019-04-14T15:17:37.091Z,11.10
2019-04-14T15:20:06.542Z,11.00
2019-04-14T15:22:36.077Z,11.20
2019-04-14T15:25:05.789Z,11.10
2019-04-14T15:27:35.650Z,12.00
2019-04-14T15:30:08.430Z,11.20
2019-04-14T15:32:37.896Z,11.10
2019-04-14T15:35:07.464Z,10.70
2019-04-14T15:37:36.903Z,10.80
2019-04-14T15:40:06.693Z,10.90
2019-04-14T15:42:36.710Z,10.80
2019-04-14T15:45:07.051Z,10.80
2019-04-14T15:47:36.627Z,10.70
2019-04-14T15:50:06.538Z,10.70
2019-04-14T15:52:35.983Z,10.80
2019-04-14T15:55:06.356Z,10.80
2019-04-14T15:57:37.499Z,11.00
2019-04-14T16:00:24.791Z,10.80
2019-04-14T16:03:12.232Z,10.80
2019-04-14T16:05:43.329Z,10.70
2019-04-14T16:08:14.505Z,10.60
2019-04-14T16:10:54.102Z,10.50
2019-04-14T16:13:37.258Z,10.50
2019-04-14T16:16:24.366Z,10.40
2019-04-14T16:18:58.245Z,10.30
2019-04-14T16:21:27.709Z,10.30
2019-04-14T16:23:57.486Z,10.50
2019-04-14T16:26:34.215Z,10.30
2019-04-14T16:29:11.288Z,10.30
2019-04-14T16:31:45.323Z,10.30
2019-04-14T16:34:19.415Z,10.30
2019-04-14T16:36:50.481Z,10.30
2019-04-14T16:39:19.951Z,10.30
2019-04-14T16:41:49.667Z,10.40
2019-04-14T16:44:19.143Z,10.40
2019-04-14T16:46:48.575Z,10.40
2019-04-14T16:49:18.055Z,10.40
2019-04-14T16:52:05.251Z,10.40
2019-04-14T16:54:42.339Z,10.30
2019-04-14T16:57:19.132Z,10.20
2019-04-14T16:59:48.712Z,10.10
2019-04-14T17:02:18.176Z,10.00
2019-04-14T17:04:49.558Z,9.80
2019-04-14T17:07:19.447Z,9.80
2019-04-14T17:09:48.914Z,9.60
2019-04-14T17:12:18.977Z,9.50
2019-04-14T17:14:59.021Z,9.40
2019-04-14T17:17:38.848Z,9.40
2019-04-14T17:20:26.209Z,9.30
2019-04-14T17:23:05.242Z,9.30
2019-04-14T17:25:36.606Z,9.30
2019-04-14T17:28:16.550Z,9.30
2019-04-14T17:31:02.680Z,9.30
2019-04-14T17:33:34.049Z,9.30
2019-04-14T17:36:11.486Z,9.30
2019-04-14T17:38:44.350Z,9.30
2019-04-14T17:41:15.617Z,9.30
2019-04-14T17:43:47.236Z,9.30
2019-04-14T17:46:30.206Z,9.30
2019-04-14T17:49:01.558Z,9.30
2019-04-14T17:51:39.588Z,9.30
2019-04-14T17:54:29.559Z,9.30
2019-04-14T17:56:59.421Z,9.30
2019-04-14T17:59:30.652Z,9.30
2019-04-14T18:02:20.071Z,9.30
2019-04-14T18:04:54.571Z,9.30
2019-04-14T18:07:31.731Z,9.30
2019-04-14T18:10:13.954Z,9.30
2019-04-14T18:12:45.926Z,9.30
2019-04-14T18:15:26.252Z,9.30
2019-04-14T18:17:57.562Z,9.30
2019-04-14T18:20:31.858Z,9.30
2019-04-14T18:23:01.563Z,9.30
2019-04-14T18:25:33.383Z,9.30
2019-04-14T18:28:20.859Z,9.30
2019-04-14T18:30:58.067Z,9.30
2019-04-14T18:33:38.192Z,9.30
2019-04-14T18:36:12.475Z,9.30
2019-04-14T18:38:46.492Z,9.30
2019-04-14T18:41:20.479Z,9.30
2019-04-14T18:44:07.645Z,9.30
2019-04-14T18:46:41.484Z,9.30
2019-04-14T18:49:15.362Z,9.30
2019-04-14T18:51:49.341Z,9.30
2019-04-14T18:54:38.502Z,9.20
2019-04-14T18:57:12.676Z,9.30
2019-04-14T18:59:46.597Z,9.30
2019-04-14T19:02:16.945Z,9.30
2019-04-14T19:04:47.363Z,9.30
2019-04-14T19:07:17.007Z,9.20
2019-04-14T19:09:46.871Z,9.20
2019-04-14T19:12:21.233Z,9.30
2019-04-14T19:14:58.113Z,9.30
2019-04-14T19:17:35.328Z,9.30
2019-04-14T19:20:06.374Z,9.30
2019-04-14T19:22:35.954Z,9.30
2019-04-14T19:25:08.514Z,9.30
2019-04-14T19:27:37.123Z,9.30
2019-04-14T19:30:13.648Z,9.30
2019-04-14T19:32:43.371Z,9.20
2019-04-14T19:35:12.862Z,9.20
2019-04-14T19:37:42.389Z,9.20
2019-04-14T19:40:12.058Z,9.20
2019-04-14T19:42:43.042Z,9.10
2019-04-14T19:45:12.808Z,9.10
2019-04-14T19:47:42.338Z,9.00
2019-04-14T19:50:15.615Z,9.00
2019-04-14T19:52:45.146Z,9.00
2019-04-14T19:55:20.718Z,9.00
2019-04-14T19:57:47.907Z,8.90
2019-04-14T20:00:17.553Z,9.00
2019-04-14T20:02:47.025Z,9.00
2019-04-14T20:05:17.023Z,9.00
2019-04-14T20:07:47.022Z,9.00
2019-04-14T20:10:16.971Z,8.90
2019-04-14T20:12:49.402Z,8.90
2019-04-14T20:15:20.678Z,8.90
2019-04-14T20:17:51.830Z,8.90
2019-04-14T20:20:39.552Z,8.90
2019-04-14T20:23:22.789Z,8.90
2019-04-14T20:26:03.086Z,8.80
2019-04-14T20:28:34.194Z,8.80
2019-04-14T20:31:11.650Z,8.80
2019-04-14T20:33:41.122Z,8.70
2019-04-14T20:36:11.008Z,8.70
2019-04-14T20:38:40.566Z,8.70
2019-04-14T20:41:10.381Z,8.60
2019-04-14T20:43:40.542Z,8.70
2019-04-14T20:46:10.264Z,8.60
2019-04-14T20:48:40.138Z,8.60
2019-04-14T20:51:14.490Z,8.60
2019-04-14T20:53:44.107Z,8.60
2019-04-14T20:56:13.661Z,8.60
2019-04-14T20:58:43.273Z,8.60
2019-04-14T21:01:13.761Z,8.60
2019-04-14T21:04:00.793Z,8.60
2019-04-14T21:06:48.335Z,8.60
2019-04-14T21:09:19.658Z,8.60
2019-04-14T21:12:02.991Z,8.60
2019-04-14T21:14:34.147Z,8.60
2019-04-14T21:17:05.629Z,8.60
2019-04-14T21:19:39.746Z,8.60
2019-04-14T21:22:10.880Z,8.60
2019-04-14T21:24:59.844Z,8.60
2019-04-14T21:27:45.190Z,8.50
2019-04-14T21:30:16.604Z,8.50
2019-04-14T21:32:49.667Z,8.50
2019-04-14T21:35:21.067Z,8.50
2019-04-14T21:37:52.261Z,8.50
2019-04-14T21:40:23.655Z,8.50
2019-04-14T21:42:53.048Z,8.40
2019-04-14T21:45:22.474Z,8.40
2019-04-14T21:47:52.051Z,8.30
2019-04-14T21:50:21.551Z,8.30
2019-04-14T21:52:51.107Z,8.30
2019-04-14T21:55:20.644Z,8.20
2019-04-14T21:57:51.763Z,8.10
2019-04-14T22:00:32.040Z,8.10
2019-04-14T22:03:12.587Z,8.10
2019-04-14T22:05:52.858Z,8.00
2019-04-14T22:08:30.022Z,8.00
2019-04-14T22:11:03.865Z,7.90
2019-04-14T22:13:33.458Z,7.90
2019-04-14T22:16:03.809Z,7.90
2019-04-14T22:18:33.367Z,7.90
2019-04-14T22:21:03.078Z,8.00
2019-04-14T22:23:32.582Z,8.00
2019-04-14T22:26:02.101Z,7.90
2019-04-14T22:28:31.725Z,7.90
2019-04-14T22:31:01.338Z,8.00
2019-04-14T22:33:31.089Z,7.90
2019-04-14T22:36:00.548Z,8.00
2019-04-14T22:38:30.305Z,7.90
2019-04-14T22:40:59.761Z,7.90
2019-04-14T22:43:29.354Z,7.90
2019-04-14T22:45:59.078Z,7.80
2019-04-14T22:48:28.562Z,7.80
2019-04-14T22:50:58.135Z,7.80
2019-04-14T22:53:31.691Z,7.70
2019-04-14T22:56:01.184Z,7.70
2019-04-14T22:58:33.821Z,7.70
2019-04-14T23:01:16.776Z,7.70
2019-04-14T23:03:53.562Z,7.70
2019-04-14T23:06:24.790Z,7.70
2019-04-14T23:08:55.915Z,7.70
2019-04-14T23:11:29.708Z,7.70
2019-04-14T23:14:16.793Z,7.80
2019-04-14T23:16:59.864Z,7.70
2019-04-14T23:19:40.079Z,7.80
2019-04-14T23:22:11.306Z,7.70
2019-04-14T23:24:45.056Z,7.60
2019-04-14T23:27:14.486Z,7.60
2019-04-14T23:29:44.245Z,7.60
2019-04-14T23:32:13.668Z,7.60
2019-04-14T23:34:43.349Z,7.60
2019-04-14T23:37:12.790Z,7.60
2019-04-14T23:39:42.367Z,7.60
2019-04-14T23:42:12.111Z,7.60
2019-04-14T23:44:42.436Z,7.60
2019-04-14T23:47:12.115Z,7.60
2019-04-14T23:49:41.594Z,7.50
2019-04-14T23:52:11.193Z,7.60
2019-04-14T23:54:40.742Z,7.50
2019-04-14T23:57:10.186Z,7.50
2019-04-14T23:59:39.648Z,7.50
